sensor_id;sensor_type;location;lat;lon;timestamp;pressure;altitude;pressure_sealevel;temperature;humidity
34742;BME280;20968;42.696;23.360;2023-02-14T00:01:52;96676.69;;;4.58;57.94
34742;BME280;20968;42.696;23.360;2023-02-14T00:04:18;96681.41;;;4.54;57.13
34742;BME280;20968;42.696;23.360;2023-02-14T00:06:44;96680.53;;;4.64;57.00
34742;BME280;20968;42.696;23.360;2023-02-14T00:09:11;96684.47;;;4.63;56.95
34742;BME280;20968;42.696;23.360;2023-02-14T00:11:38;96678.63;;;4.61;57.05
34742;BME280;20968;42.696;23.360;2023-02-14T00:14:04;96676.72;;;4.55;56.82
34742;BME280;20968;42.696;23.360;2023-02-14T00:16:48;96696.16;;;4.60;56.81
34742;BME280;20968;42.696;23.360;2023-02-14T00:19:16;96681.47;;;4.47;58.06
34742;BME280;20968;42.696;23.360;2023-02-14T00:21:41;96685.34;;;4.50;58.08
34742;BME280;20968;42.696;23.360;2023-02-14T00:24:13;96687.66;;;4.51;58.46
34742;BME280;20968;42.696;23.360;2023-02-14T00:26:39;96684.19;;;4.47;58.38
34742;BME280;20968;42.696;23.360;2023-02-14T00:29:06;96669.84;;;4.36;59.27
34742;BME280;20968;42.696;23.360;2023-02-14T00:31:32;96663.19;;;4.41;60.04
34742;BME280;20968;42.696;23.360;2023-02-14T00:33:58;96675.97;;;4.54;60.12
34742;BME280;20968;42.696;23.360;2023-02-14T00:36:23;96668.16;;;4.53;60.24
34742;BME280;20968;42.696;23.360;2023-02-14T00:38:49;96672.09;;;4.48;60.77
34742;BME280;20968;42.696;23.360;2023-02-14T00:41:14;96667.00;;;4.50;60.43
34742;BME280;20968;42.696;23.360;2023-02-14T00:43:48;96663.56;;;4.46;61.14
34742;BME280;20968;42.696;23.360;2023-02-14T00:46:14;96664.50;;;4.26;61.48
34742;BME280;20968;42.696;23.360;2023-02-14T00:48:41;96662.19;;;4.21;62.23
34742;BME280;20968;42.696;23.360;2023-02-14T00:51:07;96666.34;;;4.39;61.64
34742;BME280;20968;42.696;23.360;2023-02-14T00:53:33;96667.44;;;4.45;62.11
34742;BME280;20968;42.696;23.360;2023-02-14T00:55:58;96654.63;;;4.42;61.76
34742;BME280;20968;42.696;23.360;2023-02-14T00:58:24;96642.53;;;4.43;61.56
34742;BME280;20968;42.696;23.360;2023-02-14T01:00:49;96649.88;;;4.50;61.84
34742;BME280;20968;42.696;23.360;2023-02-14T01:03:15;96637.59;;;4.31;62.26
34742;BME280;20968;42.696;23.360;2023-02-14T01:05:40;96634.78;;;4.42;61.77
34742;BME280;20968;42.696;23.360;2023-02-14T01:08:05;96638.63;;;4.44;61.31
34742;BME280;20968;42.696;23.360;2023-02-14T01:10:31;96635.19;;;4.37;61.56
34742;BME280;20968;42.696;23.360;2023-02-14T01:12:56;96643.78;;;4.35;62.19
34742;BME280;20968;42.696;23.360;2023-02-14T01:15:22;96634.91;;;4.24;63.10
34742;BME280;20968;42.696;23.360;2023-02-14T01:17:47;96645.75;;;4.31;62.85
34742;BME280;20968;42.696;23.360;2023-02-14T01:20:13;96637.19;;;4.29;61.96
34742;BME280;20968;42.696;23.360;2023-02-14T01:22:39;96637.16;;;4.36;62.17
34742;BME280;20968;42.696;23.360;2023-02-14T01:25:05;96627.84;;;4.30;62.30
34742;BME280;20968;42.696;23.360;2023-02-14T01:27:31;96631.72;;;4.33;61.88
34742;BME280;20968;42.696;23.360;2023-02-14T01:29:57;96627.88;;;4.27;62.40
34742;BME280;20968;42.696;23.360;2023-02-14T01:32:22;96627.06;;;4.30;62.43
34742;BME280;20968;42.696;23.360;2023-02-14T01:34:47;96625.88;;;4.31;62.28
34742;BME280;20968;42.696;23.360;2023-02-14T01:37:13;96615.44;;;4.26;61.79
34742;BME280;20968;42.696;23.360;2023-02-14T01:39:39;96604.47;;;4.33;62.41
34742;BME280;20968;42.696;23.360;2023-02-14T01:42:09;96607.56;;;4.35;62.18
34742;BME280;20968;42.696;23.360;2023-02-14T01:47:01;96595.22;;;4.23;62.37
34742;BME280;20968;42.696;23.360;2023-02-14T01:49:37;96591.38;;;4.17;62.38
34742;BME280;20968;42.696;23.360;2023-02-14T01:52:23;96592.84;;;4.25;62.55
34742;BME280;20968;42.696;23.360;2023-02-14T01:55:06;96594.81;;;4.25;62.94
34742;BME280;20968;42.696;23.360;2023-02-14T01:57:41;96589.38;;;4.21;63.01
34742;BME280;20968;42.696;23.360;2023-02-14T02:00:08;96593.72;;;4.15;62.84
34742;BME280;20968;42.696;23.360;2023-02-14T02:02:52;96585.19;;;4.10;63.06
34742;BME280;20968;42.696;23.360;2023-02-14T02:05:19;96592.44;;;4.27;62.37
34742;BME280;20968;42.696;23.360;2023-02-14T02:07:49;96588.22;;;4.22;62.86
34742;BME280;20968;42.696;23.360;2023-02-14T02:10:15;96593.97;;;4.31;62.35
34742;BME280;20968;42.696;23.360;2023-02-14T02:12:42;96595.16;;;4.30;62.61
34742;BME280;20968;42.696;23.360;2023-02-14T02:15:07;96588.19;;;4.26;62.14
34742;BME280;20968;42.696;23.360;2023-02-14T02:23:27;96589.69;;;4.30;62.09
34742;BME280;20968;42.696;23.360;2023-02-14T02:40:53;96557.84;;;4.20;62.19
34742;BME280;20968;42.696;23.360;2023-02-14T02:43:50;96547.34;;;4.19;62.75
34742;BME280;20968;42.696;23.360;2023-02-14T02:46:36;96550.06;;;4.22;62.34
34742;BME280;20968;42.696;23.360;2023-02-14T02:49:33;96552.81;;;4.19;62.71
34742;BME280;20968;42.696;23.360;2023-02-14T02:55:29;96552.44;;;4.17;62.61
34742;BME280;20968;42.696;23.360;2023-02-14T02:58:23;96551.22;;;4.21;62.60
34742;BME280;20968;42.696;23.360;2023-02-14T03:00:52;96561.75;;;4.19;62.99
34742;BME280;20968;42.696;23.360;2023-02-14T03:03:20;96567.94;;;4.27;61.86
34742;BME280;20968;42.696;23.360;2023-02-14T03:06:06;96564.78;;;4.28;62.17
34742;BME280;20968;42.696;23.360;2023-02-14T03:08:32;96557.41;;;4.29;62.18
34742;BME280;20968;42.696;23.360;2023-02-14T03:10:58;96562.00;;;4.35;61.89
34742;BME280;20968;42.696;23.360;2023-02-14T03:13:29;96560.03;;;4.39;62.17
34742;BME280;20968;42.696;23.360;2023-02-14T03:24:22;96542.22;;;4.28;61.81
34742;BME280;20968;42.696;23.360;2023-02-14T03:26:56;96535.91;;;4.34;62.60
34742;BME280;20968;42.696;23.360;2023-02-14T03:29:46;96533.19;;;4.34;62.11
34742;BME280;20968;42.696;23.360;2023-02-14T03:38:05;96525.50;;;4.26;62.33
34742;BME280;20968;42.696;23.360;2023-02-14T03:40:35;96535.91;;;4.34;61.63
34742;BME280;20968;42.696;23.360;2023-02-14T03:43:17;96519.72;;;4.17;62.37
34742;BME280;20968;42.696;23.360;2023-02-14T03:46:16;96526.72;;;4.18;62.71
34742;BME280;20968;42.696;23.360;2023-02-14T03:48:43;96513.94;;;4.11;62.75
34742;BME280;20968;42.696;23.360;2023-02-14T03:51:11;96525.25;;;4.10;62.68
34742;BME280;20968;42.696;23.360;2023-02-14T03:53:42;96514.38;;;4.06;62.98
34742;BME280;20968;42.696;23.360;2023-02-14T03:58:57;96504.31;;;4.00;62.27
34742;BME280;20968;42.696;23.360;2023-02-14T04:01:31;96504.63;;;4.09;62.80
34742;BME280;20968;42.696;23.360;2023-02-14T04:03:58;96491.06;;;4.02;62.81
34742;BME280;20968;42.696;23.360;2023-02-14T04:06:25;96495.38;;;3.99;62.08
34742;BME280;20968;42.696;23.360;2023-02-14T04:08:50;96499.63;;;4.04;62.84
34742;BME280;20968;42.696;23.360;2023-02-14T04:11:16;96506.22;;;4.06;62.47
34742;BME280;20968;42.696;23.360;2023-02-14T04:13:41;96506.66;;;4.01;62.47
34742;BME280;20968;42.696;23.360;2023-02-14T04:16:07;96508.22;;;3.99;62.91
34742;BME280;20968;42.696;23.360;2023-02-14T04:18:32;96516.72;;;4.04;62.57
34742;BME280;20968;42.696;23.360;2023-02-14T04:21:17;96514.44;;;3.99;62.77
34742;BME280;20968;42.696;23.360;2023-02-14T04:23:42;96500.50;;;3.90;62.84
34742;BME280;20968;42.696;23.360;2023-02-14T04:26:08;96507.06;;;3.96;62.74
34742;BME280;20968;42.696;23.360;2023-02-14T04:28:33;96501.94;;;4.05;62.42
34742;BME280;20968;42.696;23.360;2023-02-14T04:31:03;96502.00;;;3.98;62.32
34742;BME280;20968;42.696;23.360;2023-02-14T04:33:29;96505.16;;;3.93;62.79
34742;BME280;20968;42.696;23.360;2023-02-14T04:35:55;96500.50;;;3.90;62.98
34742;BME280;20968;42.696;23.360;2023-02-14T04:38:20;96491.91;;;3.95;62.26
34742;BME280;20968;42.696;23.360;2023-02-14T04:40:48;96481.78;;;3.96;61.98
34742;BME280;20968;42.696;23.360;2023-02-14T04:43:14;96476.44;;;3.85;62.46
34742;BME280;20968;42.696;23.360;2023-02-14T04:45:39;96474.91;;;3.84;63.19
34742;BME280;20968;42.696;23.360;2023-02-14T04:48:04;96481.22;;;3.71;62.68
34742;BME280;20968;42.696;23.360;2023-02-14T04:50:30;96478.09;;;3.73;63.03
34742;BME280;20968;42.696;23.360;2023-02-14T04:52:55;96472.63;;;3.80;62.83
34742;BME280;20968;42.696;23.360;2023-02-14T04:55:21;96477.31;;;3.76;62.86
34742;BME280;20968;42.696;23.360;2023-02-14T04:57:46;96466.50;;;3.65;62.54
34742;BME280;20968;42.696;23.360;2023-02-14T05:00:12;96474.19;;;3.74;62.79
34742;BME280;20968;42.696;23.360;2023-02-14T05:02:38;96475.03;;;3.71;62.87
34742;BME280;20968;42.696;23.360;2023-02-14T05:05:03;96478.91;;;3.70;62.50
34742;BME280;20968;42.696;23.360;2023-02-14T05:07:29;96480.53;;;3.64;62.81
34742;BME280;20968;42.696;23.360;2023-02-14T05:09:54;96477.69;;;3.78;62.56
34742;BME280;20968;42.696;23.360;2023-02-14T05:12:19;96475.03;;;3.71;62.87
34742;BME280;20968;42.696;23.360;2023-02-14T05:14:45;96488.25;;;3.69;62.69
34742;BME280;20968;42.696;23.360;2023-02-14T05:17:11;96469.56;;;3.71;62.83
34742;BME280;20968;42.696;23.360;2023-02-14T05:19:36;96478.88;;;3.73;62.40
34742;BME280;20968;42.696;23.360;2023-02-14T05:22:01;96478.81;;;3.80;62.39
34742;BME280;20968;42.696;23.360;2023-02-14T05:24:27;96470.16;;;3.88;62.20
34742;BME280;20968;42.696;23.360;2023-02-14T05:26:52;96473.31;;;3.87;62.45
34742;BME280;20968;42.696;23.360;2023-02-14T05:29:18;96472.13;;;3.88;62.51
34742;BME280;20968;42.696;23.360;2023-02-14T05:31:43;96479.09;;;3.92;62.02
34742;BME280;20968;42.696;23.360;2023-02-14T05:34:10;96476.09;;;3.80;62.60
34742;BME280;20968;42.696;23.360;2023-02-14T05:36:35;96473.34;;;3.83;62.30
34742;BME280;20968;42.696;23.360;2023-02-14T05:39:01;96469.81;;;3.86;62.65
34742;BME280;20968;42.696;23.360;2023-02-14T05:41:26;96467.09;;;3.86;62.34
34742;BME280;20968;42.696;23.360;2023-02-14T05:43:52;96455.44;;;3.83;62.02
34742;BME280;20968;42.696;23.360;2023-02-14T05:46:17;96472.03;;;3.98;61.67
34742;BME280;20968;42.696;23.360;2023-02-14T05:48:42;96460.91;;;3.83;61.61
34742;BME280;20968;42.696;23.360;2023-02-14T05:51:09;96463.25;;;3.81;62.26
34742;BME280;20968;42.696;23.360;2023-02-14T05:53:35;96464.34;;;3.90;62.21
34742;BME280;20968;42.696;23.360;2023-02-14T05:56:01;96469.78;;;3.90;62.22
34742;BME280;20968;42.696;23.360;2023-02-14T05:58:30;96473.22;;;3.97;61.92
34742;BME280;20968;42.696;23.360;2023-02-14T06:00:56;96461.94;;;3.95;61.71
34742;BME280;20968;42.696;23.360;2023-02-14T06:03:22;96466.88;;;4.07;61.91
34742;BME280;20968;42.696;23.360;2023-02-14T06:05:47;96455.63;;;4.05;61.75
34742;BME280;20968;42.696;23.360;2023-02-14T06:08:13;96482.41;;;4.10;61.74
34742;BME280;20968;42.696;23.360;2023-02-14T06:10:38;96464.31;;;3.93;61.64
34742;BME280;20968;42.696;23.360;2023-02-14T06:13:03;96475.47;;;4.06;62.28
34742;BME280;20968;42.696;23.360;2023-02-14T06:15:33;96484.91;;;3.98;62.02
34742;BME280;20968;42.696;23.360;2023-02-14T06:17:59;96483.25;;;4.07;62.26
34742;BME280;20968;42.696;23.360;2023-02-14T06:20:24;96482.00;;;4.15;62.00
34742;BME280;20968;42.696;23.360;2023-02-14T06:22:51;96484.31;;;4.17;61.44
34742;BME280;20968;42.696;23.360;2023-02-14T06:25:16;96493.19;;;4.24;61.62
34742;BME280;20968;42.696;23.360;2023-02-14T06:27:42;96494.34;;;4.27;61.68
34742;BME280;20968;42.696;23.360;2023-02-14T06:30:09;96485.34;;;4.30;61.31
34742;BME280;20968;42.696;23.360;2023-02-14T06:32:35;96493.03;;;4.38;61.80
34742;BME280;20968;42.696;23.360;2023-02-14T06:35:00;96487.88;;;4.47;61.28
34742;BME280;20968;42.696;23.360;2023-02-14T06:37:27;96491.38;;;4.48;61.21
34742;BME280;20968;42.696;23.360;2023-02-14T06:39:53;96482.69;;;4.56;61.68
34742;BME280;20968;42.696;23.360;2023-02-14T06:42:18;96492.44;;;4.57;61.63
34742;BME280;20968;42.696;23.360;2023-02-14T06:44:53;96491.16;;;4.65;60.73
34742;BME280;20968;42.696;23.360;2023-02-14T06:47:18;96482.28;;;4.61;61.36
34742;BME280;20968;42.696;23.360;2023-02-14T06:49:43;96475.97;;;4.64;61.20
34742;BME280;20968;42.696;23.360;2023-02-14T06:52:09;96474.00;;;4.68;60.73
34742;BME280;20968;42.696;23.360;2023-02-14T06:54:35;96477.88;;;4.70;60.82
34742;BME280;20968;42.696;23.360;2023-02-14T06:57:01;96473.03;;;4.85;60.80
34742;BME280;20968;42.696;23.360;2023-02-14T06:59:26;96462.44;;;4.87;60.82
34742;BME280;20968;42.696;23.360;2023-02-14T07:01:52;96473.72;;;4.89;61.28
34742;BME280;20968;42.696;23.360;2023-02-14T07:04:18;96461.28;;;4.88;60.42
34742;BME280;20968;42.696;23.360;2023-02-14T07:06:44;96461.38;;;4.81;60.87
34742;BME280;20968;42.696;23.360;2023-02-14T07:09:09;96439.66;;;5.00;65.66
34742;BME280;20968;42.696;23.360;2023-02-14T07:11:35;96455.13;;;5.10;61.13
34742;BME280;20968;42.696;23.360;2023-02-14T07:14:00;96444.16;;;4.87;61.65
34742;BME280;20968;42.696;23.360;2023-02-14T07:16:26;96461.22;;;4.91;61.79
34742;BME280;20968;42.696;23.360;2023-02-14T07:18:51;96465.53;;;4.89;62.04
34742;BME280;20968;42.696;23.360;2023-02-14T07:21:16;96461.97;;;4.95;61.61
34742;BME280;20968;42.696;23.360;2023-02-14T07:23:42;96456.56;;;4.92;62.15
34742;BME280;20968;42.696;23.360;2023-02-14T07:26:10;96453.13;;;4.84;62.57
34742;BME280;20968;42.696;23.360;2023-02-14T07:28:36;96465.09;;;4.94;63.06
34742;BME280;20968;42.696;23.360;2023-02-14T07:31:02;96472.13;;;4.91;62.70
34742;BME280;20968;42.696;23.360;2023-02-14T07:33:27;96465.91;;;4.91;63.58
34742;BME280;20968;42.696;23.360;2023-02-14T07:35:53;96467.16;;;4.86;63.88
34742;BME280;20968;42.696;23.360;2023-02-14T07:38:18;96461.47;;;4.74;64.81
34742;BME280;20968;42.696;23.360;2023-02-14T07:40:44;96452.91;;;4.72;64.69
34742;BME280;20968;42.696;23.360;2023-02-14T07:43:09;96458.00;;;4.70;65.09
34742;BME280;20968;42.696;23.360;2023-02-14T07:45:35;96472.94;;;4.92;64.48
34742;BME280;20968;42.696;23.360;2023-02-14T07:48:00;96479.38;;;5.05;65.60
34742;BME280;20968;42.696;23.360;2023-02-14T07:50:27;96475.50;;;5.02;65.05
34742;BME280;20968;42.696;23.360;2023-02-14T07:52:53;96478.34;;;4.95;64.76
34742;BME280;20968;42.696;23.360;2023-02-14T07:55:19;96479.16;;;4.92;64.67
34742;BME280;20968;42.696;23.360;2023-02-14T07:57:49;96498.56;;;4.98;65.16
34742;BME280;20968;42.696;23.360;2023-02-14T08:00:15;96494.06;;;4.84;65.14
34742;BME280;20968;42.696;23.360;2023-02-14T08:02:41;96494.38;;;4.90;65.79
34742;BME280;20968;42.696;23.360;2023-02-14T08:05:07;96497.06;;;4.93;65.85
34742;BME280;20968;42.696;23.360;2023-02-14T08:07:32;96481.34;;;4.74;66.20
34742;BME280;20968;42.696;23.360;2023-02-14T08:09:58;96496.34;;;4.89;66.41
34742;BME280;20968;42.696;23.360;2023-02-14T08:12:23;96497.97;;;4.83;65.96
34742;BME280;20968;42.696;23.360;2023-02-14T08:15:08;96500.44;;;4.74;66.68
34742;BME280;20968;42.696;23.360;2023-02-14T08:17:51;96502.81;;;4.69;66.91
34742;BME280;20968;42.696;23.360;2023-02-14T08:20:17;96502.16;;;4.58;66.97
34742;BME280;20968;42.696;23.360;2023-02-14T08:22:42;96506.09;;;4.54;67.02
34742;BME280;20968;42.696;23.360;2023-02-14T08:25:08;96518.91;;;4.60;67.57
34742;BME280;20968;42.696;23.360;2023-02-14T08:27:33;96517.63;;;4.68;67.58
34742;BME280;20968;42.696;23.360;2023-02-14T08:29:59;96508.56;;;4.78;66.78
34742;BME280;20968;42.696;23.360;2023-02-14T08:32:24;96506.19;;;4.80;66.12
34742;BME280;20968;42.696;23.360;2023-02-14T08:34:49;96498.75;;;4.84;66.24
34742;BME280;20968;42.696;23.360;2023-02-14T08:37:15;96494.47;;;4.83;65.46
34742;BME280;20968;42.696;23.360;2023-02-14T08:39:40;96487.03;;;4.83;65.81
34742;BME280;20968;42.696;23.360;2023-02-14T08:42:05;96500.34;;;4.81;65.69
34742;BME280;20968;42.696;23.360;2023-02-14T08:44:31;96515.22;;;4.77;66.34
34742;BME280;20968;42.696;23.360;2023-02-14T08:46:56;96512.53;;;4.73;66.56
34742;BME280;20968;42.696;23.360;2023-02-14T08:49:22;96519.53;;;4.74;66.42
34742;BME280;20968;42.696;23.360;2023-02-14T08:51:47;96506.72;;;4.68;67.00
34742;BME280;20968;42.696;23.360;2023-02-14T08:54:13;96516.34;;;4.79;67.38
34742;BME280;20968;42.696;23.360;2023-02-14T08:56:38;96517.47;;;4.82;66.77
34742;BME280;20968;42.696;23.360;2023-02-14T08:59:05;96520.31;;;4.71;67.73
34742;BME280;20968;42.696;23.360;2023-02-14T09:01:30;96511.06;;;4.65;67.85
34742;BME280;20968;42.696;23.360;2023-02-14T09:03:56;96521.53;;;4.67;67.61
34742;BME280;20968;42.696;23.360;2023-02-14T09:06:22;96508.19;;;4.76;67.42
34742;BME280;20968;42.696;23.360;2023-02-14T09:08:47;96508.56;;;4.78;67.84
34742;BME280;20968;42.696;23.360;2023-02-14T09:11:19;96501.28;;;4.68;67.97
34742;BME280;20968;42.696;23.360;2023-02-14T09:13:46;96508.66;;;4.67;67.96
34742;BME280;20968;42.696;23.360;2023-02-14T09:16:13;96500.09;;;4.69;68.02
34742;BME280;20968;42.696;23.360;2023-02-14T09:18:42;96479.13;;;4.62;67.85
34742;BME280;20968;42.696;23.360;2023-02-14T09:21:09;96479.31;;;4.78;67.98
34742;BME280;20968;42.696;23.360;2023-02-14T09:23:35;96486.28;;;4.83;67.04
34742;BME280;20968;42.696;23.360;2023-02-14T09:26:03;96471.91;;;4.79;66.82
34742;BME280;20968;42.696;23.360;2023-02-14T09:28:30;96500.78;;;4.76;67.26
34742;BME280;20968;42.696;23.360;2023-02-14T09:30:56;96501.94;;;4.75;67.43
34742;BME280;20968;42.696;23.360;2023-02-14T09:33:21;96489.53;;;4.71;66.90
34742;BME280;20968;42.696;23.360;2023-02-14T09:35:47;96479.59;;;4.58;67.23
34742;BME280;20968;42.696;23.360;2023-02-14T09:38:13;96495.38;;;4.73;67.32
34742;BME280;20968;42.696;23.360;2023-02-14T09:40:43;96492.53;;;4.80;67.28
34742;BME280;20968;42.696;23.360;2023-02-14T09:43:32;96485.81;;;4.88;67.27
34742;BME280;20968;42.696;23.360;2023-02-14T09:45:59;96472.28;;;4.81;66.76
34742;BME280;20968;42.696;23.360;2023-02-14T09:48:38;96482.91;;;4.72;67.69
34742;BME280;20968;42.696;23.360;2023-02-14T09:51:22;96480.97;;;4.72;67.14
34742;BME280;20968;42.696;23.360;2023-02-14T09:53:52;96475.66;;;4.62;67.33
34742;BME280;20968;42.696;23.360;2023-02-14T10:01:51;96481.06;;;4.65;66.91
34742;BME280;20968;42.696;23.360;2023-02-14T10:04:32;96467.81;;;4.64;67.21
34742;BME280;20968;42.696;23.360;2023-02-14T10:07:09;96482.28;;;4.61;67.16
34742;BME280;20968;42.696;23.360;2023-02-14T10:12:22;96481.97;;;4.52;67.34
34742;BME280;20968;42.696;23.360;2023-02-14T10:14:48;96467.63;;;4.45;68.20
34742;BME280;20968;42.696;23.360;2023-02-14T10:17:43;96471.13;;;4.49;68.08
34742;BME280;20968;42.696;23.360;2023-02-14T10:20:31;96471.44;;;4.54;67.85
34742;BME280;20968;42.696;23.360;2023-02-14T10:23:22;96465.75;;;4.42;68.55
34742;BME280;20968;42.696;23.360;2023-02-14T10:26:00;96454.50;;;4.36;68.90
34742;BME280;20968;42.696;23.360;2023-02-14T10:28:36;96459.00;;;4.53;68.02
34742;BME280;20968;42.696;23.360;2023-02-14T10:31:34;96473.03;;;4.52;67.16
34742;BME280;20968;42.696;23.360;2023-02-14T10:39:27;96446.91;;;4.54;67.42
34742;BME280;20968;42.696;23.360;2023-02-14T10:44:47;96446.13;;;4.54;66.90
34742;BME280;20968;42.696;23.360;2023-02-14T10:47:37;96463.56;;;4.59;67.58
34742;BME280;20968;42.696;23.360;2023-02-14T10:53:22;96463.03;;;4.42;68.02
34742;BME280;20968;42.696;23.360;2023-02-14T10:56:07;96445.53;;;4.39;67.78
34742;BME280;20968;42.696;23.360;2023-02-14T10:58:38;96439.38;;;4.32;68.04
34742;BME280;20968;42.696;23.360;2023-02-14T11:01:08;96440.38;;;4.45;67.59
34742;BME280;20968;42.696;23.360;2023-02-14T11:03:37;96437.66;;;4.45;67.16
34742;BME280;20968;42.696;23.360;2023-02-14T11:06:03;96434.16;;;4.44;66.97
34742;BME280;20968;42.696;23.360;2023-02-14T11:08:36;96440.72;;;4.50;67.06
34742;BME280;20968;42.696;23.360;2023-02-14T11:11:26;96448.47;;;4.55;66.77
34742;BME280;20968;42.696;23.360;2023-02-14T11:13:52;96429.75;;;4.54;66.54
34742;BME280;20968;42.696;23.360;2023-02-14T11:16:29;96438.88;;;4.73;66.06
34742;BME280;20968;42.696;23.360;2023-02-14T11:21:41;96436.91;;;4.74;65.69
34742;BME280;20968;42.696;23.360;2023-02-14T11:24:17;96438.91;;;4.70;64.33
34742;BME280;20968;42.696;23.360;2023-02-14T11:26:47;96435.34;;;4.73;64.82
34742;BME280;20968;42.696;23.360;2023-02-14T11:29:22;96427.88;;;4.80;64.67
34742;BME280;20968;42.696;23.360;2023-02-14T11:31:49;96413.75;;;4.85;64.37
34742;BME280;20968;42.696;23.360;2023-02-14T11:34:32;96414.56;;;4.86;64.04
34742;BME280;20968;42.696;23.360;2023-02-14T11:37:01;96421.19;;;4.85;63.56
34742;BME280;20968;42.696;23.360;2023-02-14T11:39:33;96418.56;;;4.78;63.36
34742;BME280;20968;42.696;23.360;2023-02-14T11:42:04;96424.00;;;4.78;63.60
34742;BME280;20968;42.696;23.360;2023-02-14T11:44:31;96422.75;;;4.82;63.59
34742;BME280;20968;42.696;23.360;2023-02-14T11:47:17;96404.88;;;4.81;63.56
34742;BME280;20968;42.696;23.360;2023-02-14T11:49:59;96393.81;;;4.92;63.54
34742;BME280;20968;42.696;23.360;2023-02-14T11:52:26;96398.38;;;4.98;62.99
34742;BME280;20968;42.696;23.360;2023-02-14T11:54:55;96390.72;;;4.90;62.51
34742;BME280;20968;42.696;23.360;2023-02-14T11:59:54;96391.69;;;5.03;62.48
34742;BME280;20968;42.696;23.360;2023-02-14T12:04:52;96387.72;;;5.07;62.36
34742;BME280;20968;42.696;23.360;2023-02-14T12:07:24;96384.22;;;5.07;62.10
34742;BME280;20968;42.696;23.360;2023-02-14T12:20:53;96372.63;;;5.48;60.52
34742;BME280;20968;42.696;23.360;2023-02-14T12:29:03;96358.44;;;5.57;60.60
34742;BME280;20968;42.696;23.360;2023-02-14T12:31:30;96353.50;;;5.48;60.17
34742;BME280;20968;42.696;23.360;2023-02-14T12:33:56;96358.66;;;5.66;60.54
34742;BME280;20968;42.696;23.360;2023-02-14T12:50:33;96352.06;;;5.86;59.63
34742;BME280;20968;42.696;23.360;2023-02-14T13:01:39;96355.78;;;5.76;60.37
34742;BME280;20968;42.696;23.360;2023-02-14T13:07:00;96356.16;;;5.75;60.38
34742;BME280;20968;42.696;23.360;2023-02-14T13:12:39;96349.47;;;5.79;60.92
34742;BME280;20968;42.696;23.360;2023-02-14T13:15:18;96348.50;;;5.66;60.94
34742;BME280;20968;42.696;23.360;2023-02-14T13:17:58;96334.03;;;5.69;61.00
34742;BME280;20968;42.696;23.360;2023-02-14T13:20:50;96335.28;;;5.65;60.73
34742;BME280;20968;42.696;23.360;2023-02-14T13:23:21;96343.41;;;5.68;61.55
34742;BME280;20968;42.696;23.360;2023-02-14T13:25:55;96341.28;;;5.79;61.68
34742;BME280;20968;42.696;23.360;2023-02-14T13:28:22;96327.03;;;5.68;61.56
34742;BME280;20968;42.696;23.360;2023-02-14T13:30:48;96344.78;;;5.80;61.82
34742;BME280;20968;42.696;23.360;2023-02-14T13:33:26;96338.63;;;5.72;62.04
34742;BME280;20968;42.696;23.360;2023-02-14T13:35:55;96348.50;;;5.66;61.72
34742;BME280;20968;42.696;23.360;2023-02-14T13:38:23;96340.31;;;5.66;62.10
34742;BME280;20968;42.696;23.360;2023-02-14T13:40:50;96342.88;;;5.77;61.34
34742;BME280;20968;42.696;23.360;2023-02-14T13:43:44;96340.56;;;5.75;61.61
34742;BME280;20968;42.696;23.360;2023-02-14T13:46:10;96340.50;;;5.79;61.89
34742;BME280;20968;42.696;23.360;2023-02-14T13:48:36;96321.88;;;5.70;61.60
34742;BME280;20968;42.696;23.360;2023-02-14T13:51:03;96335.66;;;5.86;61.55
34742;BME280;20968;42.696;23.360;2023-02-14T13:53:33;96344.22;;;5.88;61.82
34742;BME280;20968;42.696;23.360;2023-02-14T13:56:02;96341.69;;;5.78;62.10
34742;BME280;20968;42.696;23.360;2023-02-14T13:58:28;96350.75;;;5.71;62.26
34742;BME280;20968;42.696;23.360;2023-02-14T14:00:54;96344.22;;;5.65;61.96
34742;BME280;20968;42.696;23.360;2023-02-14T14:11:03;96364.31;;;5.55;63.23
34742;BME280;20968;42.696;23.360;2023-02-14T14:18:51;96349.66;;;5.46;62.45
34742;BME280;20968;42.696;23.360;2023-02-14T14:21:30;96347.28;;;5.48;62.84
34742;BME280;20968;42.696;23.360;2023-02-14T14:24:23;96337.00;;;5.55;62.57
34742;BME280;20968;42.696;23.360;2023-02-14T14:27:05;96329.59;;;5.56;62.27
34742;BME280;20968;42.696;23.360;2023-02-14T14:29:48;96339.91;;;5.68;62.29
34742;BME280;20968;42.696;23.360;2023-02-14T14:32:35;96324.53;;;5.54;62.38
34742;BME280;20968;42.696;23.360;2023-02-14T14:35:18;96324.53;;;5.54;62.50
34742;BME280;20968;42.696;23.360;2023-02-14T14:37:55;96323.75;;;5.54;62.50
34742;BME280;20968;42.696;23.360;2023-02-14T14:40:30;96316.81;;;5.49;62.90
34742;BME280;20968;42.696;23.360;2023-02-14T14:43:11;96309.19;;;5.41;62.55
34742;BME280;20968;42.696;23.360;2023-02-14T14:45:37;96311.19;;;5.37;62.78
34742;BME280;20968;42.696;23.360;2023-02-14T14:48:15;96330.59;;;5.42;63.26
34742;BME280;20968;42.696;23.360;2023-02-14T14:50:44;96325.44;;;5.48;62.91
34742;BME280;20968;42.696;23.360;2023-02-14T14:53:44;96310.72;;;5.42;62.77
34742;BME280;20968;42.696;23.360;2023-02-14T14:56:23;96322.34;;;5.46;63.23
34742;BME280;20968;42.696;23.360;2023-02-14T14:58:49;96328.03;;;5.55;62.87
34742;BME280;20968;42.696;23.360;2023-02-14T15:01:37;96335.41;;;5.58;62.45
34742;BME280;20968;42.696;23.360;2023-02-14T15:06:36;96337.72;;;5.59;62.06
34742;BME280;20968;42.696;23.360;2023-02-14T15:09:34;96334.84;;;5.66;61.72
34742;BME280;20968;42.696;23.360;2023-02-14T15:12:00;96331.63;;;5.71;62.01
34742;BME280;20968;42.696;23.360;2023-02-14T15:14:48;96338.47;;;5.60;61.95
34742;BME280;20968;42.696;23.360;2023-02-14T15:17:26;96330.34;;;5.56;62.06
34742;BME280;20968;42.696;23.360;2023-02-14T15:20:06;96341.56;;;5.62;61.93
34742;BME280;20968;42.696;23.360;2023-02-14T15:22:43;96341.63;;;5.58;61.66
34742;BME280;20968;42.696;23.360;2023-02-14T15:25:15;96344.38;;;5.58;61.76
34742;BME280;20968;42.696;23.360;2023-02-14T15:27:42;96334.75;;;5.50;62.16